createdAt,value
2023-07-17T00:00:12.125Z,31.82
2023-07-17T00:02:43.782Z,31.85
2023-07-17T00:05:11.971Z,31.92
2023-07-17T00:07:40.768Z,31.93
2023-07-17T00:10:08.996Z,31.84
2023-07-17T00:12:37.180Z,31.69
2023-07-17T00:15:07.612Z,31.68
2023-07-17T00:17:35.130Z,31.65
2023-07-17T00:20:06.640Z,31.60
2023-07-17T00:22:36.180Z,31.55
2023-07-17T00:25:05.588Z,31.43
2023-07-17T00:27:33.605Z,31.38
2023-07-17T00:30:01.845Z,31.32
2023-07-17T00:32:29.850Z,31.20
2023-07-17T00:34:57.481Z,30.94
2023-07-17T00:37:25.495Z,30.83
2023-07-17T00:39:53.393Z,30.85
2023-07-17T00:42:21.527Z,30.88
2023-07-17T00:44:50.033Z,30.92
2023-07-17T00:47:17.671Z,30.93
2023-07-17T00:49:45.425Z,30.99
2023-07-17T00:52:19.180Z,30.95
2023-07-17T00:54:46.971Z,30.63
2023-07-17T00:57:15.780Z,30.49
2023-07-17T00:59:43.358Z,30.19
2023-07-17T01:02:10.803Z,30.31
2023-07-17T01:04:39.033Z,30.09
2023-07-17T01:07:07.017Z,29.86
2023-07-17T01:09:37.584Z,29.75
2023-07-17T01:12:07.582Z,29.81
2023-07-17T01:14:35.927Z,30.13
2023-07-17T01:17:03.836Z,30.29
2023-07-17T01:19:31.555Z,30.26
2023-07-17T01:22:00.691Z,30.30
2023-07-17T01:24:28.016Z,30.25
2023-07-17T01:26:55.813Z,30.11
2023-07-17T01:29:23.080Z,30.09
2023-07-17T01:31:50.932Z,30.03
2023-07-17T01:34:19.157Z,30.01
2023-07-17T01:36:49.183Z,30.00
2023-07-17T01:39:17.178Z,30.02
2023-07-17T01:41:44.938Z,29.94
2023-07-17T01:44:12.987Z,29.89
2023-07-17T01:46:42.045Z,29.51
2023-07-17T01:49:11.382Z,29.67
2023-07-17T01:51:39.931Z,29.65
2023-07-17T01:54:07.892Z,29.66
2023-07-17T01:56:36.021Z,29.73
2023-07-17T01:59:04.165Z,29.73
2023-07-17T02:01:34.241Z,29.70
2023-07-17T02:04:03.639Z,29.63
2023-07-17T02:06:31.810Z,29.63
2023-07-17T02:08:59.848Z,29.66
2023-07-17T02:11:30.461Z,29.43
2023-07-17T02:13:58.064Z,29.51
2023-07-17T02:16:26.794Z,29.73
2023-07-17T02:18:54.749Z,29.66
2023-07-17T02:21:22.411Z,29.61
2023-07-17T02:23:50.710Z,29.43
2023-07-17T02:26:18.897Z,29.59
2023-07-17T02:28:47.066Z,29.63
2023-07-17T02:31:22.949Z,29.67
2023-07-17T02:33:50.738Z,29.50
2023-07-17T02:36:18.475Z,29.56
2023-07-17T02:38:46.188Z,29.65
2023-07-17T02:41:14.909Z,29.73
2023-07-17T02:43:42.669Z,29.74
2023-07-17T02:46:10.818Z,29.55
2023-07-17T02:48:41.547Z,29.25
2023-07-17T02:51:09.934Z,29.27
2023-07-17T02:53:38.179Z,29.30
2023-07-17T02:56:06.583Z,29.28
2023-07-17T02:58:34.878Z,29.10
2023-07-17T03:01:03.045Z,28.85
2023-07-17T03:03:30.881Z,28.69
2023-07-17T03:06:00.087Z,28.66
2023-07-17T03:08:28.167Z,28.58
2023-07-17T03:10:56.580Z,28.61
2023-07-17T03:13:24.984Z,28.79
2023-07-17T03:15:53.218Z,28.86
2023-07-17T03:18:21.216Z,28.89
2023-07-17T03:20:49.371Z,28.93
2023-07-17T03:23:17.525Z,29.01
2023-07-17T03:25:45.679Z,29.11
2023-07-17T03:28:13.853Z,29.21
2023-07-17T03:30:41.424Z,29.16
2023-07-17T03:33:09.316Z,29.28
2023-07-17T03:35:37.523Z,29.26
2023-07-17T03:38:05.082Z,29.25
2023-07-17T03:40:33.188Z,29.10
2023-07-17T03:43:01.516Z,29.04
2023-07-17T03:45:29.831Z,29.00
2023-07-17T03:47:57.401Z,29.09
2023-07-17T03:50:25.080Z,29.08
2023-07-17T03:52:53.285Z,29.13
2023-07-17T03:55:21.518Z,29.18
2023-07-17T03:57:49.670Z,29.22
2023-07-17T04:00:18.184Z,28.93
2023-07-17T04:02:45.711Z,28.85
2023-07-17T04:05:13.891Z,28.77
2023-07-17T04:07:41.929Z,28.75
2023-07-17T04:10:11.491Z,28.82
2023-07-17T04:12:39.271Z,28.70
2023-07-17T04:15:10.017Z,28.72
2023-07-17T04:17:37.851Z,28.77
2023-07-17T04:20:11.890Z,28.27
2023-07-17T04:22:40.205Z,28.32
2023-07-17T04:25:11.012Z,28.38
2023-07-17T04:27:39.030Z,28.58
2023-07-17T04:30:11.100Z,28.70
2023-07-17T04:32:39.711Z,28.72
2023-07-17T04:35:09.875Z,28.77
2023-07-17T04:37:37.471Z,28.86
2023-07-17T04:40:07.943Z,28.90
2023-07-17T04:42:36.122Z,28.89
2023-07-17T04:45:10.296Z,28.98
2023-07-17T04:47:38.058Z,29.08
2023-07-17T04:50:09.179Z,29.15
2023-07-17T04:52:39.706Z,29.08
2023-07-17T04:55:10.710Z,29.04
2023-07-17T04:57:38.798Z,29.25
2023-07-17T05:00:11.099Z,29.21
2023-07-17T05:02:39.536Z,29.35
2023-07-17T05:05:09.532Z,29.35
2023-07-17T05:07:37.756Z,29.22
2023-07-17T05:10:09.288Z,29.31
2023-07-17T05:12:37.469Z,29.39
2023-07-17T05:15:06.078Z,29.74
2023-07-17T05:17:34.485Z,29.76
2023-07-17T05:20:02.294Z,29.90
2023-07-17T05:22:30.519Z,29.95
2023-07-17T05:24:58.506Z,30.03
2023-07-17T05:27:47.271Z,30.12
2023-07-17T05:30:16.659Z,30.07
2023-07-17T05:32:44.795Z,30.22
2023-07-17T05:35:12.729Z,30.27
2023-07-17T05:37:40.956Z,30.36
2023-07-17T05:40:12.905Z,30.40
2023-07-17T05:42:47.190Z,30.51
2023-07-17T05:45:15.575Z,30.17
2023-07-17T05:47:43.683Z,30.08
2023-07-17T05:50:11.920Z,30.09
2023-07-17T05:52:39.805Z,30.31
2023-07-17T05:55:08.998Z,30.29
2023-07-17T05:57:36.963Z,30.24
2023-07-17T06:00:07.899Z,30.42
2023-07-17T06:02:36.017Z,30.31
2023-07-17T06:05:04.219Z,30.35
2023-07-17T06:07:34.780Z,30.38
2023-07-17T06:10:03.228Z,30.31
2023-07-17T06:12:31.072Z,30.43
2023-07-17T06:14:59.016Z,30.46
2023-07-17T06:17:26.766Z,30.56
2023-07-17T06:19:54.911Z,30.76
2023-07-17T06:22:23.445Z,30.81
2023-07-17T06:24:51.196Z,30.61
2023-07-17T06:27:20.565Z,30.60
2023-07-17T06:29:48.406Z,30.64
2023-07-17T06:32:16.207Z,30.60
2023-07-17T06:34:44.215Z,30.56
2023-07-17T06:37:12.494Z,30.45
2023-07-17T06:39:40.847Z,30.54
2023-07-17T06:42:10.206Z,30.57
2023-07-17T06:44:38.316Z,30.65
2023-07-17T06:47:11.746Z,30.66
2023-07-17T06:49:49.040Z,30.71
2023-07-17T06:52:18.428Z,30.79
2023-07-17T06:55:02.252Z,30.86
2023-07-17T06:57:31.848Z,30.94
2023-07-17T07:00:00.012Z,30.98
2023-07-17T07:02:28.108Z,31.03
2023-07-17T07:04:55.950Z,31.23
2023-07-17T07:07:24.048Z,31.26
2023-07-17T07:09:52.233Z,31.30
2023-07-17T07:12:19.546Z,31.40
2023-07-17T07:14:47.516Z,31.43
2023-07-17T07:17:15.152Z,31.42
2023-07-17T07:19:43.954Z,31.35
2023-07-17T07:22:12.071Z,31.43
2023-07-17T07:24:42.921Z,31.44
2023-07-17T07:27:13.725Z,31.46
2023-07-17T07:29:41.284Z,31.34
2023-07-17T07:32:11.631Z,31.41
2023-07-17T07:34:40.126Z,31.43
2023-07-17T07:37:08.628Z,31.49
2023-07-17T07:39:36.718Z,31.72
2023-07-17T07:42:05.442Z,31.88
2023-07-17T07:44:36.041Z,32.02
2023-07-17T07:47:03.639Z,32.24
2023-07-17T07:49:31.604Z,32.24
2023-07-17T07:51:59.860Z,32.29
2023-07-17T07:54:27.513Z,32.27
2023-07-17T07:56:55.674Z,32.12
2023-07-17T07:59:23.496Z,32.13
2023-07-17T08:01:51.218Z,32.17
2023-07-17T08:04:19.852Z,32.37
2023-07-17T08:06:48.096Z,32.55
2023-07-17T08:09:16.319Z,32.62
2023-07-17T08:11:44.319Z,32.79
2023-07-17T08:14:11.983Z,32.82
2023-07-17T08:16:40.188Z,32.98
2023-07-17T08:19:07.976Z,33.12
2023-07-17T08:21:35.755Z,33.11
2023-07-17T08:24:04.045Z,33.00
2023-07-17T08:26:32.513Z,32.96
2023-07-17T08:29:02.108Z,33.02
2023-07-17T08:31:30.719Z,33.02
2023-07-17T08:33:58.646Z,33.18
2023-07-17T08:36:28.014Z,33.34
2023-07-17T08:38:55.921Z,33.36
2023-07-17T08:41:23.805Z,33.50
2023-07-17T08:43:52.114Z,33.62
2023-07-17T08:46:20.040Z,33.63
2023-07-17T08:48:49.388Z,33.74
2023-07-17T08:51:17.400Z,33.61
2023-07-17T08:53:48.525Z,33.82
2023-07-17T08:56:16.412Z,33.68
2023-07-17T08:58:44.562Z,33.83
2023-07-17T09:01:12.271Z,33.77
2023-07-17T09:03:39.686Z,33.75
2023-07-17T09:06:09.546Z,33.94
2023-07-17T09:08:37.816Z,34.07
2023-07-17T09:11:08.818Z,34.27
2023-07-17T09:13:43.723Z,34.27
2023-07-17T09:16:19.285Z,34.35
2023-07-17T09:19:10.771Z,34.26
2023-07-17T09:21:40.524Z,34.33
2023-07-17T09:24:09.538Z,34.34
2023-07-17T09:26:37.869Z,34.26
2023-07-17T09:29:05.681Z,34.16
2023-07-17T09:31:34.304Z,34.23
2023-07-17T09:34:02.560Z,34.29
2023-07-17T09:36:30.810Z,34.66
2023-07-17T09:39:00.425Z,34.71
2023-07-17T09:41:28.868Z,34.63
2023-07-17T09:44:01.548Z,34.59
2023-07-17T09:46:29.847Z,34.41
2023-07-17T09:48:58.033Z,34.56
2023-07-17T09:51:26.302Z,34.58
2023-07-17T09:53:54.297Z,34.52
2023-07-17T09:56:21.908Z,34.57
2023-07-17T09:58:50.146Z,34.72
2023-07-17T10:01:20.914Z,34.81
2023-07-17T10:03:49.606Z,34.75
2023-07-17T10:06:18.418Z,34.63
2023-07-17T10:08:47.989Z,34.86
2023-07-17T10:11:19.642Z,34.73
2023-07-17T10:13:50.793Z,34.79
2023-07-17T10:16:20.002Z,34.94
2023-07-17T10:19:10.238Z,35.01
2023-07-17T10:21:54.219Z,35.26
2023-07-17T10:24:26.365Z,35.54
2023-07-17T10:26:54.574Z,35.54
2023-07-17T10:29:43.726Z,35.52
2023-07-17T10:32:11.697Z,35.44
2023-07-17T10:34:49.924Z,35.43
2023-07-17T10:37:31.688Z,35.65
2023-07-17T10:40:09.659Z,35.53
2023-07-17T10:42:37.520Z,35.63
2023-07-17T10:45:13.188Z,35.74
2023-07-17T10:47:40.398Z,35.63
2023-07-17T10:50:09.991Z,35.62
2023-07-17T10:52:38.119Z,35.90
2023-07-17T10:55:06.976Z,36.07
2023-07-17T10:57:34.852Z,36.10
2023-07-17T11:00:01.970Z,36.05
2023-07-17T11:02:33.560Z,36.00
2023-07-17T11:05:04.240Z,35.76
2023-07-17T11:07:35.482Z,35.65
2023-07-17T11:10:03.328Z,35.59
2023-07-17T11:12:31.470Z,35.81
2023-07-17T11:14:59.683Z,36.05
2023-07-17T11:17:27.973Z,36.14
2023-07-17T11:20:04.820Z,36.39
2023-07-17T11:22:33.237Z,36.42
2023-07-17T11:25:00.471Z,36.33
2023-07-17T11:27:28.122Z,36.51
2023-07-17T11:29:55.362Z,36.35
2023-07-17T11:32:23.768Z,36.39
2023-07-17T11:34:55.605Z,36.41
2023-07-17T11:37:36.017Z,36.60
2023-07-17T11:40:10.123Z,36.84
2023-07-17T11:42:59.942Z,36.93
2023-07-17T11:45:27.933Z,37.11
2023-07-17T11:47:56.446Z,37.13
2023-07-17T11:50:28.163Z,37.30
2023-07-17T11:53:13.883Z,37.48
2023-07-17T11:55:41.930Z,37.28
2023-07-17T11:58:20.276Z,37.46
2023-07-17T12:00:50.412Z,37.79
2023-07-17T12:03:17.981Z,38.05
2023-07-17T12:05:46.962Z,38.22
2023-07-17T12:08:15.113Z,38.57
2023-07-17T12:10:43.337Z,38.95
2023-07-17T12:13:13.589Z,38.90
2023-07-17T12:15:41.236Z,38.86
2023-07-17T12:18:09.439Z,39.32
2023-07-17T12:20:37.167Z,39.60
2023-07-17T12:23:06.682Z,39.52
2023-07-17T12:25:34.483Z,39.55
2023-07-17T12:28:02.587Z,39.64
2023-07-17T12:30:31.371Z,39.69
2023-07-17T12:33:01.877Z,39.72
2023-07-17T12:35:30.517Z,39.78
2023-07-17T12:37:58.519Z,39.70
2023-07-17T12:40:26.593Z,39.52
2023-07-17T12:42:54.511Z,39.55
2023-07-17T12:45:22.253Z,39.65
2023-07-17T12:47:50.072Z,39.72
2023-07-17T12:50:17.895Z,39.46
2023-07-17T12:52:46.023Z,39.33
2023-07-17T12:55:14.122Z,39.18
2023-07-17T12:57:42.321Z,38.98
2023-07-17T13:00:12.740Z,38.97
2023-07-17T13:02:41.099Z,38.99
2023-07-17T13:05:09.275Z,39.07
2023-07-17T13:07:39.247Z,39.13
2023-07-17T13:10:08.192Z,39.33
2023-07-17T13:12:47.453Z,39.38
2023-07-17T13:15:17.406Z,39.52
2023-07-17T13:17:46.500Z,39.65
2023-07-17T13:20:15.182Z,39.20
2023-07-17T13:22:43.057Z,39.39
2023-07-17T13:25:11.696Z,39.50
2023-07-17T13:27:39.904Z,39.67
2023-07-17T13:30:10.844Z,39.34
2023-07-17T13:32:42.117Z,39.09
2023-07-17T13:35:11.169Z,39.25
2023-07-17T13:37:38.731Z,39.57
2023-07-17T13:40:09.825Z,39.82
2023-07-17T13:42:38.022Z,40.07
2023-07-17T13:45:08.768Z,40.00
2023-07-17T13:47:36.964Z,39.99
2023-07-17T13:50:08.753Z,40.02
2023-07-17T13:52:36.949Z,39.96
2023-07-17T13:55:06.014Z,40.10
2023-07-17T13:57:34.157Z,40.19
2023-07-17T14:00:02.965Z,40.09
2023-07-17T14:02:31.081Z,39.99
2023-07-17T14:04:59.207Z,39.95
2023-07-17T14:07:27.708Z,40.04
2023-07-17T14:09:55.865Z,39.97
2023-07-17T14:12:23.943Z,40.25
2023-07-17T14:14:52.181Z,40.34
2023-07-17T14:17:19.745Z,40.34
2023-07-17T14:19:47.829Z,40.33
2023-07-17T14:22:16.236Z,40.48
2023-07-17T14:24:44.848Z,40.49
2023-07-17T14:27:12.973Z,40.32
2023-07-17T14:29:41.283Z,40.13
2023-07-17T14:32:10.710Z,40.26
2023-07-17T14:34:42.548Z,40.41
2023-07-17T14:37:10.262Z,40.41
2023-07-17T14:39:38.498Z,40.46
2023-07-17T14:42:08.359Z,40.54
2023-07-17T14:44:36.523Z,40.63
2023-07-17T14:47:07.399Z,40.64
2023-07-17T14:49:36.900Z,40.73
2023-07-17T14:52:10.009Z,40.57
2023-07-17T14:54:38.171Z,40.88
2023-07-17T14:57:07.959Z,40.89
2023-07-17T14:59:35.578Z,41.09
2023-07-17T15:02:03.204Z,41.29
2023-07-17T15:04:31.299Z,41.36
2023-07-17T15:07:00.091Z,41.45
2023-07-17T15:09:28.622Z,41.54
2023-07-17T15:11:56.767Z,42.03
2023-07-17T15:14:27.261Z,42.06
2023-07-17T15:16:56.236Z,42.08
2023-07-17T15:19:24.390Z,42.21
2023-07-17T15:21:52.396Z,41.81
2023-07-17T15:24:20.455Z,41.97
2023-07-17T15:26:50.579Z,42.34
2023-07-17T15:29:18.312Z,43.01
2023-07-17T15:31:46.590Z,43.70
2023-07-17T15:34:14.933Z,43.58
2023-07-17T15:36:43.484Z,43.48
2023-07-17T15:39:11.242Z,44.03
2023-07-17T15:41:39.151Z,43.60
2023-07-17T15:44:07.463Z,43.85
2023-07-17T15:46:35.265Z,44.04
2023-07-17T15:49:03.973Z,44.22
2023-07-17T15:51:31.781Z,44.27
2023-07-17T15:54:00.163Z,43.92
2023-07-17T15:56:28.569Z,43.58
2023-07-17T15:58:56.332Z,43.31
2023-07-17T16:01:24.021Z,42.94
2023-07-17T16:03:55.378Z,42.96
2023-07-17T16:06:23.287Z,42.48
2023-07-17T16:08:50.981Z,42.42
2023-07-17T16:11:18.064Z,41.94
2023-07-17T16:13:45.801Z,41.62
2023-07-17T16:16:14.033Z,41.51
2023-07-17T16:18:42.137Z,41.24
2023-07-17T16:21:10.231Z,40.73
2023-07-17T16:23:38.055Z,40.44
2023-07-17T16:26:07.434Z,39.95
2023-07-17T16:28:35.704Z,39.58
2023-07-17T16:31:29.147Z,39.42
2023-07-17T16:33:56.908Z,39.26
2023-07-17T16:36:26.481Z,39.27
2023-07-17T16:38:54.541Z,39.05
2023-07-17T16:41:22.696Z,39.07
2023-07-17T16:43:50.519Z,39.08
2023-07-17T16:46:22.132Z,39.11
2023-07-17T16:48:50.324Z,39.20
2023-07-17T16:51:17.967Z,39.50
2023-07-17T16:53:48.840Z,39.57
2023-07-17T16:56:17.305Z,39.95
2023-07-17T16:58:45.470Z,40.36
2023-07-17T17:01:13.677Z,40.63
2023-07-17T17:03:42.687Z,40.51
2023-07-17T17:06:10.699Z,40.25
2023-07-17T17:08:38.832Z,39.93
2023-07-17T17:11:07.037Z,39.71
2023-07-17T17:13:35.564Z,39.46
2023-07-17T17:16:03.861Z,39.33
2023-07-17T17:18:32.345Z,39.13
2023-07-17T17:21:00.521Z,38.99
2023-07-17T17:23:28.690Z,38.80
2023-07-17T17:25:56.649Z,38.58
2023-07-17T17:28:28.344Z,38.42
2023-07-17T17:30:56.325Z,38.32
2023-07-17T17:33:24.769Z,38.30
2023-07-17T17:35:52.969Z,38.28
2023-07-17T17:38:20.973Z,38.30
2023-07-17T17:40:49.410Z,38.22
2023-07-17T17:43:17.024Z,38.18
2023-07-17T17:45:53.515Z,38.13
2023-07-17T17:48:21.237Z,38.00
2023-07-17T17:50:49.036Z,37.86
2023-07-17T17:53:17.157Z,37.80
2023-07-17T17:55:44.741Z,37.81
2023-07-17T17:58:12.894Z,37.96
2023-07-17T18:00:41.088Z,37.89
2023-07-17T18:03:09.284Z,38.09
2023-07-17T18:05:37.545Z,39.02
2023-07-17T18:08:06.538Z,39.87
2023-07-17T18:10:36.527Z,40.43
2023-07-17T18:13:07.672Z,40.64
2023-07-17T18:15:35.370Z,40.68
2023-07-17T18:18:03.592Z,40.48
2023-07-17T18:20:32.096Z,40.27
2023-07-17T18:23:00.357Z,39.89
2023-07-17T18:25:28.672Z,39.12
2023-07-17T18:27:56.364Z,38.36
2023-07-17T18:30:25.678Z,37.97
2023-07-17T18:32:53.709Z,37.72
2023-07-17T18:35:21.714Z,37.50
2023-07-17T18:37:50.086Z,37.31
2023-07-17T18:40:18.543Z,37.12
2023-07-17T18:42:46.851Z,36.89
2023-07-17T18:45:14.520Z,36.66
2023-07-17T18:47:42.611Z,36.57
2023-07-17T18:50:11.185Z,36.44
2023-07-17T18:52:39.372Z,36.34
2023-07-17T18:55:09.104Z,36.33
2023-07-17T18:57:39.554Z,36.28
2023-07-17T19:00:10.401Z,36.18
2023-07-17T19:02:40.094Z,36.10
2023-07-17T19:05:09.987Z,36.01
2023-07-17T19:07:38.159Z,35.85
2023-07-17T19:10:08.617Z,35.76
2023-07-17T19:12:36.312Z,35.74
2023-07-17T19:15:06.242Z,35.72
2023-07-17T19:17:36.278Z,35.69
2023-07-17T19:20:05.355Z,35.53
2023-07-17T19:22:33.563Z,35.42
2023-07-17T19:25:01.414Z,35.34
2023-07-17T19:27:29.619Z,35.26
2023-07-17T19:29:57.502Z,35.26
2023-07-17T19:32:27.140Z,35.05
2023-07-17T19:34:55.295Z,34.85
2023-07-17T19:37:23.814Z,34.66
2023-07-17T19:39:52.320Z,34.53
2023-07-17T19:42:20.429Z,34.30
2023-07-17T19:44:48.359Z,34.14
2023-07-17T19:47:16.537Z,34.07
2023-07-17T19:49:44.532Z,33.94
2023-07-17T19:52:12.566Z,33.81
2023-07-17T19:54:41.100Z,33.81
2023-07-17T19:57:09.815Z,33.87
2023-07-17T19:59:42.333Z,33.86
2023-07-17T20:02:10.272Z,33.81
2023-07-17T20:04:38.412Z,33.70
2023-07-17T20:07:07.545Z,33.64
2023-07-17T20:09:36.383Z,33.60
2023-07-17T20:12:05.371Z,33.54
2023-07-17T20:14:33.561Z,33.56
2023-07-17T20:17:08.469Z,33.54
2023-07-17T20:19:40.215Z,33.51
2023-07-17T20:22:08.301Z,33.50
2023-07-17T20:24:36.447Z,33.32
2023-07-17T20:27:04.532Z,33.10
2023-07-17T20:29:32.700Z,32.97
2023-07-17T20:32:00.806Z,32.89
2023-07-17T20:34:32.045Z,32.80
2023-07-17T20:36:59.903Z,32.73
2023-07-17T20:39:28.129Z,32.61
2023-07-17T20:41:55.778Z,32.53
2023-07-17T20:44:23.474Z,32.51
2023-07-17T20:46:51.609Z,32.45
2023-07-17T20:49:19.928Z,32.37
2023-07-17T20:51:50.408Z,32.29
2023-07-17T20:54:20.624Z,32.29
2023-07-17T20:56:48.283Z,32.32
2023-07-17T20:59:16.609Z,32.29
2023-07-17T21:01:45.070Z,32.26
2023-07-17T21:04:13.046Z,32.21
2023-07-17T21:06:41.929Z,32.18
2023-07-17T21:09:09.676Z,32.22
2023-07-17T21:11:37.513Z,32.24
2023-07-17T21:14:05.999Z,32.18
2023-07-17T21:16:34.117Z,32.05
2023-07-17T21:19:05.412Z,31.95
2023-07-17T21:21:33.604Z,31.93
2023-07-17T21:24:01.613Z,31.87
2023-07-17T21:26:29.619Z,31.83
2023-07-17T21:29:03.264Z,31.76
2023-07-17T21:31:33.133Z,31.64
2023-07-17T21:34:01.685Z,31.55
2023-07-17T21:36:29.608Z,31.60
2023-07-17T21:38:57.719Z,31.58
2023-07-17T21:41:25.876Z,31.60
2023-07-17T21:43:53.951Z,31.64
2023-07-17T21:46:22.379Z,31.59
2023-07-17T21:48:50.467Z,31.63
2023-07-17T21:51:20.714Z,31.64
2023-07-17T21:53:49.793Z,31.68
2023-07-17T21:56:17.984Z,31.73
2023-07-17T21:58:46.253Z,31.76
2023-07-17T22:01:14.365Z,31.76
2023-07-17T22:03:42.157Z,31.77
2023-07-17T22:06:09.970Z,31.72
2023-07-17T22:08:37.535Z,31.76
2023-07-17T22:11:05.095Z,31.83
2023-07-17T22:13:36.340Z,31.76
2023-07-17T22:16:04.518Z,31.69
2023-07-17T22:18:32.682Z,31.63
2023-07-17T22:20:59.883Z,31.56
2023-07-17T22:23:28.136Z,31.53
2023-07-17T22:25:56.207Z,31.29
2023-07-17T22:28:24.264Z,31.19
2023-07-17T22:30:52.280Z,30.99
2023-07-17T22:33:20.424Z,30.88
2023-07-17T22:35:48.006Z,30.94
2023-07-17T22:38:16.225Z,31.00
2023-07-17T22:40:45.120Z,30.97
2023-07-17T22:43:13.273Z,30.88
2023-07-17T22:45:44.338Z,30.85
2023-07-17T22:48:13.640Z,30.85
2023-07-17T22:50:41.776Z,30.88
2023-07-17T22:53:10.406Z,30.86
2023-07-17T22:55:43.265Z,30.87
2023-07-17T22:58:11.250Z,30.86
2023-07-17T23:00:38.972Z,30.90
2023-07-17T23:03:06.711Z,31.02
2023-07-17T23:05:35.054Z,31.06
2023-07-17T23:08:02.797Z,31.11
2023-07-17T23:10:29.517Z,31.10
2023-07-17T23:12:57.062Z,31.07
2023-07-17T23:15:26.310Z,31.00
2023-07-17T23:17:53.991Z,30.89
2023-07-17T23:20:22.822Z,30.90
2023-07-17T23:22:50.922Z,30.87
2023-07-17T23:25:19.330Z,30.87
2023-07-17T23:27:47.490Z,30.83
2023-07-17T23:30:15.287Z,30.83
2023-07-17T23:32:45.018Z,30.74
2023-07-17T23:35:12.766Z,30.52
2023-07-17T23:37:40.706Z,30.35
2023-07-17T23:40:10.539Z,30.22
2023-07-17T23:42:41.060Z,30.02
2023-07-17T23:45:10.993Z,29.94
2023-07-17T23:47:39.066Z,29.95
2023-07-17T23:50:09.138Z,29.99
2023-07-17T23:52:37.390Z,30.05
2023-07-17T23:55:06.693Z,30.12
2023-07-17T23:57:34.487Z,30.14
